Time;durP1;ratioP1;P1;durP2;ratioP2;P2;SDS_P1;SDS_P2;PMS_P1;PMS_P2;Temp;Humidity;BMP_temperature;BMP_pressure;BME280_temperature;BME280_humidity;BME280_pressure;Samples;Min_cycle;Max_cycle;Signal;HPM_P1;HPM_P2
2022/06/18 00:00:18;;;;;;;1.90;1.70;;;16.70;99.90;;;;;;5034065;28;20029;-73
2022/06/18 00:02:44;;;;;;;2.28;1.58;;;16.70;99.90;;;;;;5034267;28;20384;-72
2022/06/18 00:05:12;;;;;;;1.30;1.10;;;17.00;99.90;;;;;;5034124;28;20017;-72
2022/06/18 00:07:42;;;;;;;2.70;1.38;;;17.20;99.90;;;;;;5034245;28;20075;-74
2022/06/18 00:10:15;;;;;;;1.45;1.33;;;17.20;99.90;;;;;;5034063;28;20030;-73
2022/06/18 00:15:29;;;;;;;2.13;1.23;;;17.60;99.90;;;;;;5034231;28;20044;-73
2022/06/18 00:17:55;;;;;;;1.67;1.40;;;17.40;99.90;;;;;;5031834;28;20029;-73
2022/06/18 00:20:23;;;;;;;1.70;1.27;;;17.30;99.90;;;;;;5033161;28;20044;-74
2022/06/18 00:22:51;;;;;;;2.47;1.65;;;16.90;99.90;;;;;;5033758;28;20025;-75
2022/06/18 00:25:19;;;;;;;2.78;1.65;;;16.70;99.90;;;;;;5033855;28;20059;-74
2022/06/18 00:27:45;;;;;;;2.55;1.52;;;16.70;99.90;;;;;;5031058;28;20506;-74
2022/06/18 00:30:14;;;;;;;1.73;1.48;;;16.80;99.90;;;;;;5033349;28;20107;-76
2022/06/18 00:32:39;;;;;;;1.73;1.42;;;16.50;99.90;;;;;;5013752;28;20022;-75
2022/06/18 00:35:06;;;;;;;2.60;1.50;;;16.60;99.90;;;;;;5027246;28;20025;-75
2022/06/18 00:37:32;;;;;;;1.83;1.27;;;16.70;99.90;;;;;;5033592;28;20109;-76
2022/06/18 00:39:57;;;;;;;1.60;1.42;;;16.80;99.90;;;;;;5033449;28;20030;-74
2022/06/18 00:42:28;;;;;;;1.83;1.50;;;16.70;99.90;;;;;;5032997;28;20037;-73
2022/06/18 00:44:57;;;;;;;2.05;1.42;;;16.90;99.90;;;;;;5021358;28;20037;-75
2022/06/18 00:47:36;;;;;;;1.55;1.42;;;16.70;99.90;;;;;;5033503;28;20033;-73
2022/06/18 00:50:25;;;;;;;2.47;1.40;;;16.60;99.90;;;;;;5032948;28;20041;-74
2022/06/18 00:52:53;;;;;;;2.60;1.63;;;16.70;99.90;;;;;;5032732;28;20026;-74
2022/06/18 00:55:44;;;;;;;3.38;1.58;;;16.60;99.90;;;;;;5026233;28;20467;-74
2022/06/18 00:58:34;;;;;;;1.85;1.58;;;16.20;99.90;;;;;;5033112;28;20052;-74
2022/06/18 01:01:01;;;;;;;1.48;1.38;;;16.30;99.90;;;;;;5032394;28;20021;-73
2022/06/18 01:03:33;;;;;;;2.00;1.80;;;16.40;99.90;;;;;;5027067;28;20025;-73
2022/06/18 01:06:11;;;;;;;2.05;1.60;;;16.50;99.90;;;;;;5033022;28;20068;-73
2022/06/18 01:08:39;;;;;;;2.33;1.45;;;16.30;99.90;;;;;;5033186;28;20064;-74
2022/06/18 01:11:11;;;;;;;3.17;1.40;;;16.40;99.90;;;;;;5032395;28;20507;-74
2022/06/18 01:13:39;;;;;;;4.20;1.52;;;16.60;99.90;;;;;;5033034;28;20021;-73
2022/06/18 01:16:07;;;;;;;1.55;1.30;;;16.80;99.90;;;;;;5015119;28;20041;-72
2022/06/18 01:18:33;;;;;;;1.52;1.38;;;16.90;99.90;;;;;;5015326;28;20029;-72
2022/06/18 01:21:19;;;;;;;3.47;1.50;;;16.60;99.90;;;;;;5032396;28;20040;-73
2022/06/18 01:24:10;;;;;;;3.35;1.70;;;16.60;99.90;;;;;;5033527;28;20040;-73
2022/06/18 01:26:36;;;;;;;3.55;1.70;;;16.50;99.90;;;;;;5032974;28;20037;-72
2022/06/18 01:29:02;;;;;;;1.88;1.40;;;16.50;99.90;;;;;;5018445;28;20025;-73
2022/06/18 01:31:27;;;;;;;3.08;1.40;;;16.60;99.90;;;;;;5024090;28;20075;-73
2022/06/18 01:33:53;;;;;;;2.67;1.52;;;16.50;99.90;;;;;;5032744;28;20030;-73
2022/06/18 01:36:19;;;;;;;1.70;1.52;;;16.60;99.90;;;;;;5032831;28;20392;-73
2022/06/18 01:38:46;;;;;;;2.33;1.35;;;16.90;99.90;;;;;;5032854;28;20541;-72
2022/06/18 01:44:17;;;;;;;1.70;1.50;;;16.80;99.90;;;;;;5032586;28;20032;-73
2022/06/18 01:46:47;;;;;;;4.55;2.10;;;16.80;99.90;;;;;;5032556;28;20033;-72
2022/06/18 01:49:17;;;;;;;1.35;1.25;;;16.70;99.90;;;;;;5030384;28;20025;-73
2022/06/18 01:51:47;;;;;;;2.83;1.85;;;16.70;99.90;;;;;;5029510;28;20021;-71
2022/06/18 01:54:24;;;;;;;2.35;1.60;;;16.50;99.90;;;;;;5032057;28;20357;-72
2022/06/18 01:56:55;;;;;;;3.38;1.77;;;16.40;99.90;;;;;;5027653;28;20419;-72
2022/06/18 01:59:29;;;;;;;1.90;1.60;;;16.10;99.90;;;;;;5024720;28;20036;-72
2022/06/18 02:01:56;;;;;;;2.60;1.58;;;15.80;99.90;;;;;;5031647;28;20557;-72
2022/06/18 02:04:24;;;;;;;2.33;1.60;;;15.90;99.90;;;;;;5019493;28;20128;-71
2022/06/18 02:06:50;;;;;;;2.95;1.50;;;16.00;99.90;;;;;;5032106;28;20029;-74
2022/06/18 02:09:37;;;;;;;2.72;1.88;;;16.00;99.90;;;;;;5031984;28;20028;-73
2022/06/18 02:12:07;;;;;;;2.25;1.70;;;16.00;99.90;;;;;;5021672;28;20079;-74
2022/06/18 02:14:35;;;;;;;4.05;1.65;;;15.90;99.90;;;;;;5031869;28;20036;-74
2022/06/18 02:17:03;;;;;;;3.08;1.80;;;16.00;99.90;;;;;;5031963;28;20022;-75
2022/06/18 02:19:30;;;;;;;2.08;1.40;;;15.90;99.90;;;;;;5031916;28;20071;-75
2022/06/18 02:21:58;;;;;;;2.55;1.70;;;16.00;99.90;;;;;;5031733;28;20545;-75
2022/06/18 02:24:23;;;;;;;5.28;1.80;;;16.10;99.90;;;;;;5031687;28;20025;-75
2022/06/18 02:26:49;;;;;;;2.10;1.83;;;16.10;99.90;;;;;;5031822;28;20036;-74
2022/06/18 02:29:19;;;;;;;3.10;1.50;;;16.20;99.90;;;;;;5025963;28;20038;-75
2022/06/18 02:31:45;;;;;;;2.75;1.60;;;16.10;99.90;;;;;;5024254;28;20017;-75
2022/06/18 02:34:16;;;;;;;1.60;1.50;;;16.10;99.90;;;;;;5027016;28;20053;-75
2022/06/18 02:36:42;;;;;;;2.10;1.70;;;16.30;99.90;;;;;;5031707;28;20100;-73
2022/06/18 02:39:07;;;;;;;2.65;1.77;;;15.90;99.90;;;;;;5031641;28;20049;-73
2022/06/18 02:41:38;;;;;;;2.88;1.92;;;16.00;99.90;;;;;;5030916;28;20422;-73
2022/06/18 02:44:04;;;;;;;2.97;1.70;;;16.00;99.90;;;;;;5031588;28;20030;-74
2022/06/18 02:46:30;;;;;;;2.80;1.60;;;16.00;99.90;;;;;;5031446;28;20047;-72
2022/06/18 02:48:57;;;;;;;5.00;1.85;;;15.90;99.90;;;;;;5031513;28;20468;-73
2022/06/18 02:51:22;;;;;;;3.13;1.73;;;16.00;99.90;;;;;;5025411;28;20021;-73
2022/06/18 02:53:48;;;;;;;2.33;1.80;;;15.90;99.90;;;;;;5031361;28;20455;-74
2022/06/18 02:56:15;;;;;;;2.70;1.70;;;15.90;99.90;;;;;;5013668;28;20017;-73
2022/06/18 02:58:46;;;;;;;2.35;1.63;;;15.80;99.90;;;;;;5031481;28;20420;-74
2022/06/18 03:01:16;;;;;;;2.30;1.67;;;15.90;99.90;;;;;;5030706;28;20104;-73
2022/06/18 03:03:47;;;;;;;1.77;1.60;;;16.10;99.90;;;;;;5031390;28;20029;-73
2022/06/18 03:06:14;;;;;;;3.17;1.77;;;16.10;99.90;;;;;;5030093;28;20030;-74
2022/06/18 03:08:40;;;;;;;1.77;1.60;;;16.20;99.90;;;;;;5013409;28;20483;-73
2022/06/18 03:13:50;;;;;;;3.28;1.75;;;16.30;99.90;;;;;;5031511;28;20113;-73
2022/06/18 03:16:19;;;;;;;6.05;1.63;;;16.20;99.90;;;;;;5031092;28;20100;-73
2022/06/18 03:18:46;;;;;;;2.10;1.90;;;16.20;99.90;;;;;;5020343;28;20486;-72
2022/06/18 03:21:50;;;;;;;2.78;1.90;;;16.10;99.90;;;;;;5015961;28;20025;-72
2022/06/18 03:24:15;;;;;;;2.55;1.75;;;16.00;99.90;;;;;;5020430;28;20029;-71
2022/06/18 03:26:41;;;;;;;2.97;1.63;;;15.90;99.90;;;;;;5035026;28;20056;-71
2022/06/18 03:29:08;;;;;;;4.75;2.00;;;15.90;99.90;;;;;;5030461;28;20033;-71
2022/06/18 03:31:35;;;;;;;2.10;1.90;;;15.90;99.90;;;;;;5034295;28;20021;-73
2022/06/18 03:34:01;;;;;;;2.25;1.88;;;15.90;99.90;;;;;;5034914;28;20067;-76
2022/06/18 03:36:27;;;;;;;4.70;1.80;;;15.70;99.90;;;;;;5025251;28;20022;-73
2022/06/18 03:38:52;;;;;;;2.97;1.60;;;16.00;99.90;;;;;;5034846;28;20026;-73
2022/06/18 03:41:20;;;;;;;2.17;1.42;;;15.90;99.90;;;;;;5025111;28;20479;-74
2022/06/18 03:43:46;;;;;;;1.85;1.42;;;16.10;99.90;;;;;;5034517;28;20029;-73
2022/06/18 03:46:15;;;;;;;1.92;1.40;;;16.00;99.90;;;;;;5034788;28;20100;-74
2022/06/18 03:48:52;;;;;;;3.63;1.58;;;16.20;99.90;;;;;;5034665;28;20415;-73
2022/06/18 03:51:19;;;;;;;2.17;1.60;;;16.20;99.90;;;;;;5015158;28;20507;-73
2022/06/18 03:53:44;;;;;;;2.85;1.63;;;16.00;99.90;;;;;;5016694;28;20113;-73
2022/06/18 03:56:15;;;;;;;3.53;1.75;;;16.10;99.90;;;;;;5034267;28;20088;-73
2022/06/18 03:58:41;;;;;;;2.08;1.65;;;15.70;99.90;;;;;;5034371;28;20029;-74
2022/06/18 04:01:08;;;;;;;3.80;1.40;;;15.80;99.90;;;;;;5033777;28;20021;-73
2022/06/18 04:03:34;;;;;;;3.20;1.60;;;16.10;99.90;;;;;;5034422;28;20485;-72
2022/06/18 04:06:00;;;;;;;3.60;1.67;;;16.20;99.90;;;;;;5027842;28;20176;-72
2022/06/18 04:08:25;;;;;;;3.17;1.70;;;16.10;99.90;;;;;;5028265;28;20040;-73
2022/06/18 04:10:51;;;;;;;4.15;1.73;;;15.80;99.90;;;;;;5027028;28;20487;-73
2022/06/18 04:13:17;;;;;;;2.20;1.55;;;15.90;99.90;;;;;;5034069;28;20037;-73
2022/06/18 04:15:43;;;;;;;3.15;1.75;;;15.90;99.90;;;;;;5033861;28;20032;-72
2022/06/18 04:18:12;;;;;;;1.88;1.35;;;16.40;99.90;;;;;;5032733;28;20025;-73
2022/06/18 04:20:38;;;;;;;3.17;1.60;;;16.50;99.90;;;;;;5033390;28;20030;-74
2022/06/18 04:23:04;;;;;;;2.17;1.40;;;16.50;99.90;;;;;;5034029;28;20088;-74
2022/06/18 04:25:31;;;;;;;3.20;1.65;;;16.70;99.90;;;;;;5033790;28;20524;-73
2022/06/18 04:27:57;;;;;;;2.95;1.70;;;16.60;99.90;;;;;;5015874;28;20395;-72
2022/06/18 04:30:24;;;;;;;2.90;1.77;;;16.70;99.90;;;;;;5033139;28;20032;-72
2022/06/18 04:32:50;;;;;;;3.35;1.60;;;16.80;99.90;;;;;;5032409;28;20056;-73
2022/06/18 04:35:16;;;;;;;1.48;1.38;;;16.90;99.90;;;;;;5033620;28;20026;-72
2022/06/18 04:37:44;;;;;;;2.33;1.60;;;17.10;99.90;;;;;;5033625;28;20018;-73
2022/06/18 04:40:16;;;;;;;2.70;1.50;;;17.20;99.90;;;;;;5033332;28;20053;-72
2022/06/18 04:42:41;;;;;;;1.70;1.45;;;17.30;99.90;;;;;;5033644;28;20036;-73
2022/06/18 04:45:08;;;;;;;2.15;1.40;;;17.10;99.90;;;;;;5033500;28;20025;-73
2022/06/18 04:47:33;;;;;;;1.90;1.42;;;17.20;99.90;;;;;;5015813;28;20029;-73
2022/06/18 04:49:59;;;;;;;1.60;1.50;;;17.40;99.90;;;;;;5033330;28;20033;-73
2022/06/18 04:52:25;;;;;;;2.53;1.50;;;17.30;99.90;;;;;;5032767;28;20483;-73
2022/06/18 04:54:52;;;;;;;2.53;1.83;;;17.30;99.90;;;;;;5033237;28;20102;-73
2022/06/18 04:57:19;;;;;;;2.13;1.55;;;17.50;99.90;;;;;;5022140;28;20543;-73
2022/06/18 04:59:45;;;;;;;1.98;1.60;;;17.30;99.90;;;;;;5033448;28;20044;-73
2022/06/18 05:02:20;;;;;;;1.73;1.50;;;17.70;99.90;;;;;;5014843;28;20030;-73
2022/06/18 05:04:45;;;;;;;1.57;1.30;;;17.60;99.90;;;;;;5017081;28;20030;-73
2022/06/18 05:07:11;;;;;;;1.55;1.45;;;17.50;99.90;;;;;;5033185;28;20033;-74
2022/06/18 05:09:36;;;;;;;2.30;1.30;;;17.40;99.90;;;;;;5033048;28;20025;-74
2022/06/18 05:12:02;;;;;;;2.20;1.73;;;17.70;99.90;;;;;;5014634;28;20111;-73
2022/06/18 05:14:28;;;;;;;1.60;1.50;;;17.90;99.90;;;;;;5032705;28;20022;-73
2022/06/18 05:16:53;;;;;;;2.88;1.60;;;18.00;99.90;;;;;;5032909;28;20032;-73
2022/06/18 05:19:27;;;;;;;1.92;1.60;;;18.30;99.90;;;;;;5014998;28;20056;-73
2022/06/18 05:21:52;;;;;;;3.75;1.90;;;18.40;99.90;;;;;;5032348;28;20025;-76
2022/06/18 05:24:18;;;;;;;2.30;1.90;;;18.50;99.90;;;;;;5032708;28;20117;-73
2022/06/18 05:26:47;;;;;;;3.33;1.70;;;18.60;99.90;;;;;;5032796;28;20021;-73
2022/06/18 05:29:13;;;;;;;2.67;1.95;;;18.70;99.90;;;;;;5030036;28;20048;-73
2022/06/18 05:31:38;;;;;;;3.42;2.22;;;18.80;99.90;;;;;;5031923;28;20061;-73
2022/06/18 05:34:04;;;;;;;2.65;2.25;;;19.00;99.90;;;;;;5032406;28;20064;-73
2022/06/18 05:36:30;;;;;;;2.92;2.15;;;19.00;99.90;;;;;;5032576;28;20021;-73
2022/06/18 05:38:57;;;;;;;3.60;2.55;;;18.80;99.90;;;;;;5032444;28;20034;-73
2022/06/18 05:41:23;;;;;;;2.90;2.00;;;19.10;99.90;;;;;;5031766;28;20557;-73
2022/06/18 05:43:49;;;;;;;2.55;2.03;;;19.20;99.90;;;;;;5032326;28;20033;-74
2022/06/18 05:46:15;;;;;;;2.50;2.30;;;19.30;99.90;;;;;;5031771;28;20033;-74
2022/06/18 05:48:41;;;;;;;3.15;2.10;;;19.30;99.90;;;;;;5032164;28;20029;-73
2022/06/18 05:51:06;;;;;;;3.22;2.15;;;19.30;99.90;;;;;;5031672;28;20159;-74
2022/06/18 05:53:32;;;;;;;2.75;2.15;;;19.50;99.90;;;;;;5032215;28;20036;-74
2022/06/18 05:55:57;;;;;;;3.03;2.10;;;19.60;99.90;;;;;;5032053;28;20025;-74
2022/06/18 05:58:23;;;;;;;4.30;2.10;;;19.90;99.90;;;;;;5032186;28;20040;-73
2022/06/18 06:00:49;;;;;;;3.20;2.20;;;19.90;99.90;;;;;;5031534;28;20419;-74
2022/06/18 06:03:14;;;;;;;2.92;2.20;;;20.10;99.90;;;;;;5014183;28;20021;-74
2022/06/18 06:05:40;;;;;;;3.42;2.25;;;20.10;99.90;;;;;;5031945;28;20018;-73
2022/06/18 06:08:06;;;;;;;3.88;2.30;;;20.30;99.90;;;;;;5031961;28;20035;-74
2022/06/18 06:13:19;;;;;;;2.97;2.20;;;20.90;99.90;;;;;;5020625;28;20032;-74
2022/06/18 06:15:45;;;;;;;3.30;2.28;;;20.90;99.90;;;;;;5031685;28;20121;-73
2022/06/18 06:18:13;;;;;;;4.10;2.50;;;21.00;99.90;;;;;;5031930;28;20096;-74
2022/06/18 06:20:41;;;;;;;3.42;2.60;;;21.30;99.90;;;;;;5031151;28;20053;-74
2022/06/18 06:23:08;;;;;;;4.50;2.30;;;21.40;99.90;;;;;;5014128;28;20104;-74
2022/06/18 06:25:35;;;;;;;2.95;2.35;;;21.50;99.90;;;;;;5031656;28;20402;-74
2022/06/18 06:28:01;;;;;;;4.63;2.50;;;21.50;99.90;;;;;;5014085;28;20029;-73
2022/06/18 06:30:27;;;;;;;2.92;2.35;;;21.70;99.90;;;;;;5030858;28;20032;-73
2022/06/18 06:32:53;;;;;;;3.75;2.35;;;21.80;99.90;;;;;;5031702;28;20040;-74
2022/06/18 06:35:19;;;;;;;2.83;2.22;;;22.00;99.90;;;;;;5031809;28;20036;-72
2022/06/18 06:37:45;;;;;;;3.50;2.55;;;22.10;99.90;;;;;;5031712;28;20022;-73
2022/06/18 06:40:13;;;;;;;5.63;2.72;;;22.20;99.90;;;;;;5013819;28;20052;-71
2022/06/18 06:42:42;;;;;;;4.18;2.10;;;22.40;99.90;;;;;;5031393;28;20022;-72
2022/06/18 06:45:11;;;;;;;2.60;2.40;;;22.40;99.90;;;;;;5031459;28;20360;-73
2022/06/18 06:47:36;;;;;;;4.60;2.63;;;22.50;99.90;;;;;;5013754;28;20372;-74
2022/06/18 06:50:02;;;;;;;2.33;2.10;;;22.60;99.90;;;;;;5040344;28;20150;-74
2022/06/18 06:52:28;;;;;;;3.13;2.40;;;22.60;99.90;;;;;;5040576;28;20364;-76
2022/06/18 06:57:21;;;;;;;2.67;2.42;;;22.90;99.90;;;;;;5013967;28;20033;-76
2022/06/18 06:57:42;;;;;;;2.47;2.27;;;23.10;99.70;;;;;;5032642;28;20105;-76
2022/06/18 07:00:08;;;;;;;3.30;2.60;;;23.00;99.50;;;;;;5035323;28;20467;-76
2022/06/18 07:02:34;;;;;;;4.95;2.63;;;23.00;99.40;;;;;;5023739;28;20099;-76
2022/06/18 07:04:59;;;;;;;2.53;2.33;;;23.00;99.10;;;;;;5035465;28;20037;-76
2022/06/18 07:07:26;;;;;;;2.85;2.40;;;23.30;98.80;;;;;;5035435;28;20037;-76
2022/06/18 07:09:51;;;;;;;3.30;2.22;;;23.30;98.10;;;;;;5035176;28;20503;-77
2022/06/18 07:12:17;;;;;;;3.35;2.45;;;23.40;98.90;;;;;;5034894;28;20096;-76
2022/06/18 07:14:42;;;;;;;2.70;2.40;;;23.60;98.60;;;;;;5035130;28;20483;-76
2022/06/18 07:17:18;;;;;;;5.25;2.50;;;23.50;98.00;;;;;;5035329;28;20044;-75
2022/06/18 07:19:44;;;;;;;3.42;2.40;;;23.60;98.90;;;;;;5022777;28;20029;-75
2022/06/18 07:22:11;;;;;;;2.42;2.20;;;23.70;97.40;;;;;;5034547;28;20031;-75
2022/06/18 07:24:37;;;;;;;3.20;2.38;;;23.70;98.30;;;;;;5029919;28;20045;-76
2022/06/18 07:27:04;;;;;;;4.03;2.60;;;23.90;98.10;;;;;;5035090;28;20029;-76
2022/06/18 07:29:30;;;;;;;4.53;2.60;;;24.20;98.70;;;;;;5035009;28;20072;-76
2022/06/18 07:32:11;;;;;;;4.03;2.40;;;24.30;98.10;;;;;;5022472;28;20075;-76
2022/06/18 07:34:37;;;;;;;3.45;2.60;;;24.30;98.10;;;;;;5034726;28;20056;-76
2022/06/18 07:37:03;;;;;;;2.92;2.08;;;24.00;96.40;;;;;;5034809;28;20033;-76
2022/06/18 07:39:29;;;;;;;2.58;2.38;;;24.20;98.10;;;;;;5023277;28;20021;-76
2022/06/18 07:41:55;;;;;;;3.83;2.20;;;24.20;96.40;;;;;;5019982;28;20063;-75
2022/06/18 07:44:24;;;;;;;2.97;2.60;;;24.20;97.30;;;;;;5034701;28;20018;-75
2022/06/18 07:46:52;;;;;;;4.45;2.40;;;24.00;97.00;;;;;;5034745;28;20040;-77
2022/06/18 07:49:18;;;;;;;3.03;2.22;;;24.20;97.20;;;;;;5031816;28;20545;-76
2022/06/18 07:51:44;;;;;;;2.85;2.33;;;24.20;97.00;;;;;;5031452;28;20549;-76
2022/06/18 07:54:13;;;;;;;2.70;2.22;;;24.60;97.20;;;;;;5034563;28;20025;-77
2022/06/18 07:56:39;;;;;;;5.13;2.80;;;24.90;97.40;;;;;;5034591;28;20033;-75
2022/06/18 07:59:05;;;;;;;5.38;2.75;;;24.80;96.50;;;;;;5034669;28;20013;-76
2022/06/18 08:01:30;;;;;;;2.72;2.30;;;24.90;97.00;;;;;;5033867;28;20458;-77
2022/06/18 08:03:56;;;;;;;2.83;2.38;;;25.10;96.80;;;;;;5034385;28;20029;-76
2022/06/18 08:06:22;;;;;;;3.55;2.47;;;24.80;96.40;;;;;;5029993;28;20067;-76
2022/06/18 08:08:47;;;;;;;5.90;3.00;;;24.70;95.90;;;;;;5033729;28;20031;-76
2022/06/18 08:11:17;;;;;;;4.90;2.30;;;25.00;95.90;;;;;;5031886;28;20045;-77
2022/06/18 08:13:42;;;;;;;3.65;2.45;;;25.30;96.70;;;;;;5034314;28;20063;-77
2022/06/18 08:16:10;;;;;;;2.75;2.45;;;25.70;96.80;;;;;;5034274;28;20029;-76
2022/06/18 08:18:36;;;;;;;3.97;2.38;;;26.00;96.20;;;;;;5016355;28;20029;-76
2022/06/18 08:21:15;;;;;;;3.72;2.30;;;25.80;95.00;;;;;;5017802;28;20091;-77
2022/06/18 08:23:41;;;;;;;3.67;2.42;;;25.80;95.10;;;;;;5034076;28;20025;-75
2022/06/18 08:26:08;;;;;;;4.90;2.75;;;26.20;96.80;;;;;;5034039;28;20080;-74
2022/06/18 08:28:35;;;;;;;3.92;2.50;;;26.30;95.70;;;;;;5033945;28;20364;-75
2022/06/18 08:31:03;;;;;;;2.97;2.60;;;26.10;95.20;;;;;;5033298;28;20025;-75
2022/06/18 08:33:29;;;;;;;3.35;2.58;;;26.10;96.40;;;;;;5033842;28;20017;-75
2022/06/18 08:35:57;;;;;;;3.63;2.58;;;26.40;96.60;;;;;;5033835;28;20029;-76
2022/06/18 08:38:23;;;;;;;2.70;2.50;;;26.40;95.60;;;;;;5033807;28;20119;-76
2022/06/18 08:41:16;;;;;;;4.93;2.95;;;26.20;95.60;;;;;;5033138;28;20395;-76
2022/06/18 08:43:44;;;;;;;3.03;2.55;;;26.40;95.90;;;;;;5033610;28;20068;-76
2022/06/18 08:46:25;;;;;;;3.63;2.88;;;26.90;95.40;;;;;;5033941;28;20384;-75
2022/06/18 08:49:03;;;;;;;4.22;2.55;;;26.90;96.10;;;;;;5005805;28;20025;-76
2022/06/18 08:51:35;;;;;;;3.85;2.90;;;26.80;95.40;;;;;;5028939;28;20540;-75
2022/06/18 08:54:25;;;;;;;4.35;2.78;;;27.10;95.90;;;;;;5026237;28;20025;-76
2022/06/18 08:57:01;;;;;;;2.67;2.45;;;27.40;94.90;;;;;;5033473;28;20391;-75
2022/06/18 08:59:58;;;;;;;3.08;2.55;;;27.60;94.90;;;;;;5034677;28;20044;-77
2022/06/18 09:02:53;;;;;;;3.60;2.88;;;27.60;94.00;;;;;;5015671;28;20474;-75
2022/06/18 09:05:43;;;;;;;3.45;2.67;;;27.90;94.60;;;;;;5033454;28;20398;-76
2022/06/18 09:08:22;;;;;;;6.10;2.72;;;27.80;93.80;;;;;;5033207;28;20018;-76
2022/06/18 09:11:12;;;;;;;3.10;2.88;;;27.60;94.90;;;;;;5032474;28;20053;-75
2022/06/18 09:13:57;;;;;;;3.78;2.90;;;27.60;94.80;;;;;;5033167;28;20053;-76
2022/06/18 09:16:31;;;;;;;4.03;2.75;;;27.70;94.20;;;;;;5015468;28;20029;-76
2022/06/18 09:19:00;;;;;;;5.10;2.42;;;28.00;93.60;;;;;;5032864;28;20026;-76
2022/06/18 09:21:37;;;;;;;4.15;2.45;;;27.90;91.70;;;;;;5031312;28;20021;-76
2022/06/18 09:24:04;;;;;;;2.60;2.40;;;27.90;91.70;;;;;;5027612;28;20399;-76
2022/06/18 09:26:37;;;;;;;2.70;2.47;;;27.80;91.70;;;;;;5015100;28;20079;-76
2022/06/18 09:29:46;;;;;;;2.63;2.30;;;27.90;91.20;;;;;;5032620;28;20021;-76
2022/06/18 09:32:25;;;;;;;2.60;2.33;;;28.00;91.60;;;;;;5003541;28;20045;-75
2022/06/18 09:35:07;;;;;;;3.33;2.50;;;28.30;92.00;;;;;;5032295;28;20029;-75
2022/06/18 09:37:49;;;;;;;3.13;2.67;;;28.20;91.40;;;;;;5006052;28;20056;-76
2022/06/18 09:40:30;;;;;;;3.13;2.63;;;28.00;91.20;;;;;;5031762;28;20070;-76
2022/06/18 09:43:18;;;;;;;4.10;2.30;;;28.30;92.00;;;;;;5032638;28;20025;-75
2022/06/18 09:45:51;;;;;;;4.07;2.40;;;28.60;91.80;;;;;;5020228;28;20026;-76
2022/06/18 09:48:16;;;;;;;4.95;2.63;;;29.30;91.60;;;;;;5019149;28;20037;-73
2022/06/18 09:50:53;;;;;;;2.95;2.40;;;29.50;91.30;;;;;;5030519;28;20391;-74
2022/06/18 09:53:45;;;;;;;2.70;1.90;;;29.20;88.50;;;;;;5032330;28;20120;-75
2022/06/18 09:56:15;;;;;;;3.58;2.15;;;29.10;89.90;;;;;;5030274;28;20403;-75
2022/06/18 09:58:43;;;;;;;3.90;3.35;;;29.70;89.40;;;;;;5032294;28;20087;-75
2022/06/18 10:01:14;;;;;;;4.43;3.40;;;29.10;88.30;;;;;;5025318;28;20025;-75
2022/06/18 10:09:16;;;;;;;3.50;1.90;;;29.10;86.60;;;;;;5032139;28;20445;-76
2022/06/18 10:11:42;;;;;;;3.80;1.92;;;29.40;87.10;;;;;;5031501;28;20328;-75
2022/06/18 10:14:14;;;;;;;4.18;2.47;;;29.30;85.60;;;;;;5033365;28;20014;-75
2022/06/18 10:16:47;;;;;;;2.58;2.00;;;29.60;87.90;;;;;;5036673;28;20029;-76
2022/06/18 10:19:31;;;;;;;2.58;2.17;;;29.70;86.70;;;;;;5022475;28;20064;-75
2022/06/18 10:22:11;;;;;;;2.95;2.10;;;29.70;87.30;;;;;;5021454;28;20049;-75
2022/06/18 10:25:02;;;;;;;3.00;2.30;;;29.80;85.90;;;;;;5001929;28;20028;-75
2022/06/18 10:27:42;;;;;;;4.80;2.60;;;30.00;88.10;;;;;;5031872;28;20049;-75
2022/06/18 10:30:34;;;;;;;2.88;2.47;;;29.80;86.70;;;;;;5031642;28;20035;-75
2022/06/18 10:33:26;;;;;;;3.75;2.67;;;30.30;88.90;;;;;;4974472;28;20387;-75
2022/06/18 10:35:58;;;;;;;4.88;2.63;;;30.90;90.00;;;;;;5020947;28;20472;-75
2022/06/18 10:38:26;;;;;;;5.07;2.60;;;30.40;86.40;;;;;;5031792;28;20031;-75
2022/06/18 10:41:07;;;;;;;5.32;3.28;;;30.30;88.30;;;;;;5025292;28;20107;-75
2022/06/18 10:44:03;;;;;;;4.40;2.80;;;30.80;89.20;;;;;;5031803;28;20057;-75
2022/06/18 10:46:29;;;;;;;4.35;2.80;;;30.70;87.60;;;;;;5031510;28;20037;-75
2022/06/18 10:49:01;;;;;;;5.40;2.75;;;30.20;86.90;;;;;;5031477;28;20107;-75
2022/06/18 10:51:32;;;;;;;5.03;2.63;;;30.40;87.70;;;;;;5031009;28;20029;-75
2022/06/18 10:54:03;;;;;;;4.35;2.70;;;30.90;89.10;;;;;;5031500;28;20029;-75
2022/06/18 10:56:32;;;;;;;4.82;2.78;;;30.70;86.30;;;;;;5031697;28;20024;-75
2022/06/18 10:59:03;;;;;;;4.70;3.20;;;31.20;86.40;;;;;;5031483;28;20045;-75
2022/06/18 11:01:47;;;;;;;4.93;2.83;;;31.20;85.80;;;;;;5031316;28;20079;-76
2022/06/18 11:04:25;;;;;;;7.10;2.88;;;31.10;86.10;;;;;;5019760;28;20487;-75
2022/06/18 11:07:12;;;;;;;3.10;2.72;;;31.00;86.40;;;;;;5018906;28;20032;-75
2022/06/18 11:09:56;;;;;;;5.97;2.40;;;31.70;85.30;;;;;;5031503;28;20101;-75
2022/06/18 11:12:31;;;;;;;8.73;2.65;;;31.80;84.30;;;;;;5030901;28;20018;-75
2022/06/18 11:14:57;;;;;;;6.75;2.70;;;31.50;83.90;;;;;;5031086;28;20112;-76
2022/06/18 11:17:30;;;;;;;5.57;2.92;;;31.50;85.00;;;;;;5031281;28;20053;-75
2022/06/18 11:20:27;;;;;;;5.88;2.92;;;31.50;85.20;;;;;;5031237;28;20063;-72
2022/06/18 11:22:59;;;;;;;7.20;2.85;;;31.90;85.40;;;;;;5010939;28;20061;-75
2022/06/18 11:25:45;;;;;;;5.75;3.10;;;32.50;83.40;;;;;;5031267;28;20039;-76
2022/06/18 11:28:39;;;;;;;6.18;2.83;;;32.50;84.20;;;;;;5031327;28;20025;-74
2022/06/18 11:31:06;;;;;;;5.28;2.58;;;32.00;84.20;;;;;;5012363;28;20091;-75
2022/06/18 11:33:42;;;;;;;6.53;2.70;;;32.50;83.40;;;;;;5031110;28;20476;-75
2022/06/18 11:36:14;;;;;;;6.25;2.65;;;31.90;81.10;;;;;;5031434;28;20048;-75
2022/06/18 11:38:49;;;;;;;8.52;3.97;;;32.00;82.50;;;;;;5031111;28;20025;-73
2022/06/18 11:41:20;;;;;;;5.47;2.90;;;32.50;82.70;;;;;;5030995;28;20040;-76
2022/06/18 11:43:51;;;;;;;9.63;2.83;;;32.80;81.20;;;;;;5032348;28;20103;-76
2022/06/18 11:46:27;;;;;;;11.07;2.83;;;32.50;80.80;;;;;;5034763;28;20045;-76
2022/06/18 11:49:06;;;;;;;4.05;2.42;;;32.40;81.50;;;;;;5034453;28;20025;-75
2022/06/18 11:51:53;;;;;;;5.55;2.72;;;33.00;80.90;;;;;;5029804;28;20034;-75
2022/06/18 11:54:41;;;;;;;4.95;2.80;;;33.20;81.20;;;;;;5016529;28;20112;-76
2022/06/18 11:57:07;;;;;;;6.88;2.45;;;33.10;79.60;;;;;;5010084;28;20025;-75
2022/06/18 11:59:54;;;;;;;6.47;2.58;;;33.50;79.90;;;;;;5034480;28;20025;-75
2022/06/18 12:02:50;;;;;;;5.20;3.03;;;34.00;79.50;;;;;;5033949;28;20395;-75
2022/06/18 12:05:21;;;;;;;8.30;2.88;;;33.90;79.70;;;;;;5022977;28;20029;-75
2022/06/18 12:07:52;;;;;;;7.55;3.00;;;32.90;78.80;;;;;;5034249;28;20059;-76
2022/06/18 12:10:19;;;;;;;8.93;2.90;;;33.00;77.00;;;;;;5033768;28;20490;-75
2022/06/18 12:12:48;;;;;;;7.18;3.20;;;33.30;78.60;;;;;;5034289;28;20026;-76
2022/06/18 12:15:20;;;;;;;7.78;3.00;;;33.50;78.10;;;;;;5034066;28;20083;-75
2022/06/18 12:17:55;;;;;;;7.28;2.97;;;33.50;79.10;;;;;;5033895;28;20083;-75
2022/06/18 12:20:37;;;;;;;;;;;33.30;77.00;;;;;;5025258;28;20388;-76
2022/06/18 12:23:32;;;;;;;7.80;2.92;;;33.50;76.90;;;;;;5008724;28;19909;-75
2022/06/18 12:26:26;;;;;;;10.50;3.17;;;33.70;78.20;;;;;;5033623;28;20018;-75
2022/06/18 12:29:13;;;;;;;8.10;3.13;;;33.70;76.50;;;;;;5025733;28;20116;-76
2022/06/18 12:32:00;;;;;;;14.05;3.03;;;34.10;77.20;;;;;;5024620;28;20076;-75
2022/06/18 12:34:56;;;;;;;12.32;3.17;;;34.10;75.60;;;;;;5008406;28;20032;-76
2022/06/18 12:37:58;;;;;;;8.50;3.58;;;33.80;75.00;;;;;;5019919;28;20551;-76
2022/06/18 12:40:35;;;;;;;4.90;2.80;;;33.80;75.10;;;;;;5032629;28;20099;-75
2022/06/18 12:43:24;;;;;;;7.28;2.75;;;34.20;77.10;;;;;;5033690;28;20029;-75
2022/06/18 12:46:05;;;;;;;9.82;2.90;;;33.70;74.90;;;;;;5021488;28;20021;-76
2022/06/18 12:48:53;;;;;;;7.03;2.92;;;33.50;74.50;;;;;;5033671;28;20026;-75
2022/06/18 12:51:45;;;;;;;10.55;2.72;;;34.30;75.30;;;;;;5026614;28;20112;-74
2022/06/18 12:54:29;;;;;;;7.40;2.80;;;34.70;74.80;;;;;;5028456;28;20092;-74
2022/06/18 12:57:20;;;;;;;8.55;2.78;;;34.90;73.30;;;;;;5033131;28;20024;-76
2022/06/18 13:00:10;;;;;;;10.93;3.20;;;34.20;73.70;;;;;;5033188;28;20021;-76
2022/06/18 13:03:06;;;;;;;10.45;3.17;;;34.10;74.90;;;;;;5025581;28;20391;-76
2022/06/18 13:05:43;;;;;;;;;;;34.20;75.30;;;;;;5012697;28;20518;-76
2022/06/18 13:08:35;;;;;;;8.45;3.20;;;35.10;74.40;;;;;;5033063;28;19905;-76
2022/06/18 13:11:25;;;;;;;10.90;3.00;;;35.60;73.70;;;;;;5032694;28;20029;-75
2022/06/18 13:14:11;;;;;;;15.50;3.40;;;34.50;72.30;;;;;;5033319;28;20167;-75
2022/06/18 13:16:49;;;;;;;10.55;3.42;;;34.70;73.20;;;;;;5021539;28;20155;-75
2022/06/18 13:19:24;;;;;;;11.98;3.33;;;35.00;74.20;;;;;;5033193;28;20026;-76
2022/06/18 13:21:50;;;;;;;10.82;3.17;;;36.10;73.70;;;;;;5014759;28;20044;-75
2022/06/18 13:30:36;;;;;;;10.10;3.20;;;35.20;72.70;;;;;;5032680;28;20083;-75
2022/06/18 13:33:16;;;;;;;8.90;2.80;;;35.10;71.20;;;;;;5022842;28;20105;-75
2022/06/18 13:36:15;;;;;;;14.48;3.90;;;35.80;72.50;;;;;;5015046;28;20618;-75